Kingsbury, South Dakota
Current Conditions -  °F | °C
As of 10:35 AM on Sunday 21 Dec 2014 (Local Time) from KYKN Reporting Station
Few Clouds Few Clouds  
Wind Chill: 26°   Ceiling: Unl
Heat Index: 34°   Visibility: 8mi
Dew Point: 30°   Wind: 9mph
Humidity: 87%   Direction: 120°ESE
Pressure: 29.73"   Gusts: NA
Location:  42.9808°N, 97.8717°W
Report Text: KYKN 211635Z AUTO 12008KT 8SM FEW110 01/M01 A2973 RMK AO1
Loading
Personal Weather Stations






























Interactive Weather Map New forecast layout! Learn more

10-Day Weather Forecast

Advertisements
Track Severe Weather on mobile